sensor_id;sensor_type;location;lat;lon;timestamp;P1;durP1;ratioP1;P2;durP2;ratioP2
70832;SDS011;71099;59.528;17.886;2023-07-28T00:01:29;3.78;;;1.88;;
70832;SDS011;71099;59.528;17.886;2023-07-28T00:03:55;2.58;;;1.50;;
70832;SDS011;71099;59.528;17.886;2023-07-28T00:06:20;2.63;;;1.60;;
70832;SDS011;71099;59.528;17.886;2023-07-28T00:08:46;3.10;;;1.85;;
70832;SDS011;71099;59.528;17.886;2023-07-28T00:11:12;5.10;;;1.98;;
70832;SDS011;71099;59.528;17.886;2023-07-28T00:13:39;4.50;;;2.05;;
70832;SDS011;71099;59.528;17.886;2023-07-28T00:16:06;5.13;;;2.13;;
70832;SDS011;71099;59.528;17.886;2023-07-28T00:18:33;5.50;;;2.90;;
70832;SDS011;71099;59.528;17.886;2023-07-28T00:20:58;6.78;;;1.90;;
70832;SDS011;71099;59.528;17.886;2023-07-28T00:23:24;5.40;;;2.70;;
70832;SDS011;71099;59.528;17.886;2023-07-28T00:25:50;6.32;;;2.28;;
70832;SDS011;71099;59.528;17.886;2023-07-28T00:28:15;3.92;;;1.95;;
70832;SDS011;71099;59.528;17.886;2023-07-28T00:30:40;2.15;;;1.95;;
70832;SDS011;71099;59.528;17.886;2023-07-28T00:33:06;2.55;;;1.58;;
70832;SDS011;71099;59.528;17.886;2023-07-28T00:35:31;3.63;;;2.30;;
70832;SDS011;71099;59.528;17.886;2023-07-28T00:37:57;2.78;;;2.42;;
70832;SDS011;71099;59.528;17.886;2023-07-28T00:40:23;6.65;;;1.75;;
70832;SDS011;71099;59.528;17.886;2023-07-28T00:42:48;2.92;;;1.85;;
70832;SDS011;71099;59.528;17.886;2023-07-28T00:45:14;2.95;;;1.88;;
70832;SDS011;71099;59.528;17.886;2023-07-28T00:47:40;2.88;;;2.10;;
70832;SDS011;71099;59.528;17.886;2023-07-28T00:50:06;3.97;;;1.73;;
70832;SDS011;71099;59.528;17.886;2023-07-28T00:52:34;4.43;;;1.80;;
70832;SDS011;71099;59.528;17.886;2023-07-28T00:55:00;3.03;;;2.10;;
70832;SDS011;71099;59.528;17.886;2023-07-28T00:57:25;3.22;;;2.08;;
70832;SDS011;71099;59.528;17.886;2023-07-28T00:59:51;2.70;;;1.67;;
70832;SDS011;71099;59.528;17.886;2023-07-28T01:02:16;4.57;;;2.55;;
70832;SDS011;71099;59.528;17.886;2023-07-28T01:04:42;5.53;;;2.15;;
70832;SDS011;71099;59.528;17.886;2023-07-28T01:07:21;5.53;;;2.03;;
70832;SDS011;71099;59.528;17.886;2023-07-28T01:09:57;4.50;;;2.38;;
70832;SDS011;71099;59.528;17.886;2023-07-28T01:12:31;3.00;;;2.03;;
70832;SDS011;71099;59.528;17.886;2023-07-28T01:14:57;2.72;;;1.70;;
70832;SDS011;71099;59.528;17.886;2023-07-28T01:17:22;2.40;;;1.98;;
70832;SDS011;71099;59.528;17.886;2023-07-28T01:19:51;5.28;;;2.75;;
70832;SDS011;71099;59.528;17.886;2023-07-28T01:25:35;5.93;;;2.47;;
70832;SDS011;71099;59.528;17.886;2023-07-28T01:28:01;3.80;;;1.88;;
70832;SDS011;71099;59.528;17.886;2023-07-28T01:30:29;4.57;;;1.85;;
70832;SDS011;71099;59.528;17.886;2023-07-28T01:32:55;5.40;;;2.30;;
70832;SDS011;71099;59.528;17.886;2023-07-28T01:35:21;9.32;;;2.33;;
70832;SDS011;71099;59.528;17.886;2023-07-28T01:37:47;4.70;;;2.38;;
70832;SDS011;71099;59.528;17.886;2023-07-28T01:40:16;4.13;;;2.42;;
70832;SDS011;71099;59.528;17.886;2023-07-28T01:42:45;8.10;;;2.55;;
70832;SDS011;71099;59.528;17.886;2023-07-28T01:45:11;3.40;;;1.60;;
70832;SDS011;71099;59.528;17.886;2023-07-28T01:47:37;4.50;;;1.92;;
70832;SDS011;71099;59.528;17.886;2023-07-28T01:50:02;3.70;;;1.95;;
70832;SDS011;71099;59.528;17.886;2023-07-28T01:52:28;4.60;;;2.13;;
70832;SDS011;71099;59.528;17.886;2023-07-28T01:54:53;3.30;;;1.63;;
70832;SDS011;71099;59.528;17.886;2023-07-28T01:57:18;2.97;;;1.92;;
70832;SDS011;71099;59.528;17.886;2023-07-28T01:59:44;3.17;;;1.85;;
70832;SDS011;71099;59.528;17.886;2023-07-28T02:02:09;3.22;;;1.75;;
70832;SDS011;71099;59.528;17.886;2023-07-28T02:04:35;5.95;;;3.03;;
70832;SDS011;71099;59.528;17.886;2023-07-28T02:07:00;6.78;;;2.75;;
70832;SDS011;71099;59.528;17.886;2023-07-28T02:09:25;3.10;;;1.90;;
70832;SDS011;71099;59.528;17.886;2023-07-28T02:11:51;4.40;;;2.20;;
70832;SDS011;71099;59.528;17.886;2023-07-28T02:14:17;4.57;;;3.17;;
70832;SDS011;71099;59.528;17.886;2023-07-28T02:16:43;3.28;;;2.25;;
70832;SDS011;71099;59.528;17.886;2023-07-28T02:19:08;6.30;;;2.97;;
70832;SDS011;71099;59.528;17.886;2023-07-28T02:21:34;3.85;;;2.38;;
70832;SDS011;71099;59.528;17.886;2023-07-28T02:23:59;3.75;;;2.40;;
70832;SDS011;71099;59.528;17.886;2023-07-28T02:26:25;5.50;;;2.25;;
70832;SDS011;71099;59.528;17.886;2023-07-28T02:28:50;6.93;;;3.15;;
70832;SDS011;71099;59.528;17.886;2023-07-28T02:31:16;4.22;;;2.28;;
70832;SDS011;71099;59.528;17.886;2023-07-28T02:33:42;7.07;;;3.45;;
70832;SDS011;71099;59.528;17.886;2023-07-28T02:36:07;3.50;;;2.50;;
70832;SDS011;71099;59.528;17.886;2023-07-28T02:38:33;6.68;;;2.55;;
70832;SDS011;71099;59.528;17.886;2023-07-28T02:40:58;3.63;;;2.03;;
70832;SDS011;71099;59.528;17.886;2023-07-28T02:43:24;4.35;;;2.20;;
70832;SDS011;71099;59.528;17.886;2023-07-28T02:45:56;4.82;;;2.47;;
70832;SDS011;71099;59.528;17.886;2023-07-28T02:48:22;3.38;;;2.00;;
70832;SDS011;71099;59.528;17.886;2023-07-28T02:50:51;2.72;;;2.08;;
70832;SDS011;71099;59.528;17.886;2023-07-28T02:53:17;5.30;;;2.17;;
70832;SDS011;71099;59.528;17.886;2023-07-28T02:55:43;4.53;;;2.30;;
70832;SDS011;71099;59.528;17.886;2023-07-28T02:58:09;3.22;;;1.80;;
70832;SDS011;71099;59.528;17.886;2023-07-28T03:00:38;4.68;;;2.08;;
70832;SDS011;71099;59.528;17.886;2023-07-28T03:03:05;7.65;;;2.80;;
70832;SDS011;71099;59.528;17.886;2023-07-28T03:05:31;2.53;;;1.80;;
70832;SDS011;71099;59.528;17.886;2023-07-28T03:07:57;3.40;;;2.20;;
70832;SDS011;71099;59.528;17.886;2023-07-28T03:10:23;3.03;;;2.00;;
70832;SDS011;71099;59.528;17.886;2023-07-28T03:12:48;4.68;;;2.25;;
70832;SDS011;71099;59.528;17.886;2023-07-28T03:15:14;4.45;;;2.50;;
70832;SDS011;71099;59.528;17.886;2023-07-28T03:17:39;7.47;;;2.00;;
70832;SDS011;71099;59.528;17.886;2023-07-28T03:20:04;2.65;;;2.40;;
70832;SDS011;71099;59.528;17.886;2023-07-28T03:22:31;5.00;;;2.40;;
70832;SDS011;71099;59.528;17.886;2023-07-28T03:24:56;5.05;;;2.08;;
70832;SDS011;71099;59.528;17.886;2023-07-28T03:27:22;4.82;;;2.83;;
70832;SDS011;71099;59.528;17.886;2023-07-28T03:29:47;4.55;;;2.17;;
70832;SDS011;71099;59.528;17.886;2023-07-28T03:32:12;2.90;;;1.95;;
70832;SDS011;71099;59.528;17.886;2023-07-28T03:34:38;4.53;;;1.92;;
70832;SDS011;71099;59.528;17.886;2023-07-28T03:37:03;7.03;;;2.72;;
70832;SDS011;71099;59.528;17.886;2023-07-28T03:39:29;4.20;;;2.38;;
70832;SDS011;71099;59.528;17.886;2023-07-28T03:41:56;2.35;;;2.00;;
70832;SDS011;71099;59.528;17.886;2023-07-28T03:44:21;2.38;;;1.77;;
70832;SDS011;71099;59.528;17.886;2023-07-28T03:46:47;2.72;;;2.38;;
70832;SDS011;71099;59.528;17.886;2023-07-28T03:49:12;3.03;;;2.10;;
70832;SDS011;71099;59.528;17.886;2023-07-28T03:51:38;4.75;;;2.58;;
70832;SDS011;71099;59.528;17.886;2023-07-28T03:54:03;3.72;;;2.20;;
70832;SDS011;71099;59.528;17.886;2023-07-28T03:56:29;4.25;;;2.50;;
70832;SDS011;71099;59.528;17.886;2023-07-28T03:58:54;2.13;;;1.88;;
70832;SDS011;71099;59.528;17.886;2023-07-28T04:01:20;4.85;;;2.47;;
70832;SDS011;71099;59.528;17.886;2023-07-28T04:03:46;6.82;;;2.63;;
70832;SDS011;71099;59.528;17.886;2023-07-28T04:06:12;5.15;;;2.13;;
70832;SDS011;71099;59.528;17.886;2023-07-28T04:08:38;4.82;;;2.53;;
70832;SDS011;71099;59.528;17.886;2023-07-28T04:11:04;3.95;;;2.13;;
70832;SDS011;71099;59.528;17.886;2023-07-28T04:13:30;3.38;;;2.30;;
70832;SDS011;71099;59.528;17.886;2023-07-28T04:15:55;3.28;;;2.20;;
70832;SDS011;71099;59.528;17.886;2023-07-28T04:18:21;3.67;;;2.05;;
70832;SDS011;71099;59.528;17.886;2023-07-28T04:20:46;4.85;;;2.17;;
70832;SDS011;71099;59.528;17.886;2023-07-28T04:23:12;3.25;;;2.50;;
70832;SDS011;71099;59.528;17.886;2023-07-28T04:25:37;4.28;;;2.70;;
70832;SDS011;71099;59.528;17.886;2023-07-28T04:28:03;2.75;;;2.42;;
70832;SDS011;71099;59.528;17.886;2023-07-28T04:30:28;3.03;;;2.20;;
70832;SDS011;71099;59.528;17.886;2023-07-28T04:32:53;3.35;;;2.25;;
70832;SDS011;71099;59.528;17.886;2023-07-28T04:35:19;5.75;;;2.42;;
70832;SDS011;71099;59.528;17.886;2023-07-28T04:37:44;3.10;;;1.73;;
70832;SDS011;71099;59.528;17.886;2023-07-28T04:40:10;3.97;;;2.10;;
70832;SDS011;71099;59.528;17.886;2023-07-28T04:42:36;3.97;;;2.25;;
70832;SDS011;71099;59.528;17.886;2023-07-28T04:45:01;7.70;;;3.03;;
70832;SDS011;71099;59.528;17.886;2023-07-28T04:47:27;2.90;;;2.10;;
70832;SDS011;71099;59.528;17.886;2023-07-28T04:49:53;7.85;;;2.75;;
70832;SDS011;71099;59.528;17.886;2023-07-28T04:52:18;2.85;;;2.05;;
70832;SDS011;71099;59.528;17.886;2023-07-28T04:54:43;3.75;;;2.00;;
70832;SDS011;71099;59.528;17.886;2023-07-28T04:57:09;4.65;;;1.95;;
70832;SDS011;71099;59.528;17.886;2023-07-28T04:59:34;2.83;;;2.47;;
70832;SDS011;71099;59.528;17.886;2023-07-28T05:02:00;3.05;;;1.80;;
70832;SDS011;71099;59.528;17.886;2023-07-28T05:04:25;3.35;;;2.00;;
70832;SDS011;71099;59.528;17.886;2023-07-28T05:06:50;3.47;;;1.83;;
70832;SDS011;71099;59.528;17.886;2023-07-28T05:09:16;3.13;;;1.90;;
70832;SDS011;71099;59.528;17.886;2023-07-28T05:11:41;4.35;;;2.55;;
70832;SDS011;71099;59.528;17.886;2023-07-28T05:14:07;4.30;;;2.17;;
70832;SDS011;71099;59.528;17.886;2023-07-28T05:16:33;4.43;;;2.55;;
70832;SDS011;71099;59.528;17.886;2023-07-28T05:18:59;4.63;;;1.95;;
70832;SDS011;71099;59.528;17.886;2023-07-28T05:21:25;3.55;;;1.88;;
70832;SDS011;71099;59.528;17.886;2023-07-28T05:23:50;4.00;;;2.05;;
70832;SDS011;71099;59.528;17.886;2023-07-28T05:26:16;2.30;;;1.63;;
70832;SDS011;71099;59.528;17.886;2023-07-28T05:28:41;2.75;;;1.70;;
70832;SDS011;71099;59.528;17.886;2023-07-28T05:31:07;1.40;;;1.30;;
70832;SDS011;71099;59.528;17.886;2023-07-28T05:33:32;1.75;;;1.45;;
70832;SDS011;71099;59.528;17.886;2023-07-28T05:35:59;3.80;;;1.40;;
70832;SDS011;71099;59.528;17.886;2023-07-28T05:38:30;3.40;;;1.63;;
70832;SDS011;71099;59.528;17.886;2023-07-28T05:40:56;2.10;;;1.88;;
70832;SDS011;71099;59.528;17.886;2023-07-28T05:43:32;2.97;;;2.05;;
70832;SDS011;71099;59.528;17.886;2023-07-28T05:45:58;2.55;;;1.75;;
70832;SDS011;71099;59.528;17.886;2023-07-28T05:48:25;2.47;;;1.70;;
70832;SDS011;71099;59.528;17.886;2023-07-28T05:50:51;3.88;;;1.40;;
70832;SDS011;71099;59.528;17.886;2023-07-28T05:53:18;1.40;;;1.30;;
70832;SDS011;71099;59.528;17.886;2023-07-28T05:55:46;2.60;;;1.42;;
70832;SDS011;71099;59.528;17.886;2023-07-28T05:58:11;2.13;;;1.20;;
70832;SDS011;71099;59.528;17.886;2023-07-28T06:00:38;3.78;;;1.60;;
70832;SDS011;71099;59.528;17.886;2023-07-28T06:03:04;2.70;;;2.35;;
70832;SDS011;71099;59.528;17.886;2023-07-28T06:05:29;5.07;;;2.15;;
70832;SDS011;71099;59.528;17.886;2023-07-28T06:07:55;2.38;;;1.30;;
70832;SDS011;71099;59.528;17.886;2023-07-28T06:10:20;3.13;;;1.67;;
70832;SDS011;71099;59.528;17.886;2023-07-28T06:12:45;2.22;;;1.50;;
70832;SDS011;71099;59.528;17.886;2023-07-28T06:15:11;2.45;;;1.27;;
70832;SDS011;71099;59.528;17.886;2023-07-28T06:17:36;2.38;;;1.40;;
70832;SDS011;71099;59.528;17.886;2023-07-28T06:20:02;3.38;;;1.40;;
70832;SDS011;71099;59.528;17.886;2023-07-28T06:22:27;3.92;;;1.27;;
70832;SDS011;71099;59.528;17.886;2023-07-28T06:24:53;3.20;;;1.27;;
70832;SDS011;71099;59.528;17.886;2023-07-28T06:27:18;1.38;;;1.00;;
70832;SDS011;71099;59.528;17.886;2023-07-28T06:29:44;2.40;;;1.38;;
70832;SDS011;71099;59.528;17.886;2023-07-28T06:32:09;2.13;;;1.70;;
70832;SDS011;71099;59.528;17.886;2023-07-28T06:34:35;2.50;;;1.27;;
70832;SDS011;71099;59.528;17.886;2023-07-28T06:37:00;2.17;;;1.33;;
70832;SDS011;71099;59.528;17.886;2023-07-28T06:39:26;2.53;;;0.90;;
70832;SDS011;71099;59.528;17.886;2023-07-28T06:41:51;2.35;;;1.20;;
70832;SDS011;71099;59.528;17.886;2023-07-28T06:44:17;1.77;;;1.25;;
70832;SDS011;71099;59.528;17.886;2023-07-28T06:46:42;1.92;;;1.25;;
70832;SDS011;71099;59.528;17.886;2023-07-28T06:49:08;0.93;;;0.90;;
70832;SDS011;71099;59.528;17.886;2023-07-28T06:51:33;2.72;;;1.20;;
70832;SDS011;71099;59.528;17.886;2023-07-28T06:53:59;1.08;;;0.98;;
70832;SDS011;71099;59.528;17.886;2023-07-28T06:56:24;4.63;;;1.15;;
70832;SDS011;71099;59.528;17.886;2023-07-28T06:58:50;2.13;;;1.17;;
70832;SDS011;71099;59.528;17.886;2023-07-28T07:01:16;1.92;;;1.30;;
70832;SDS011;71099;59.528;17.886;2023-07-28T07:03:43;1.20;;;1.10;;
70832;SDS011;71099;59.528;17.886;2023-07-28T07:06:08;2.15;;;1.42;;
70832;SDS011;71099;59.528;17.886;2023-07-28T07:08:34;1.10;;;1.00;;
70832;SDS011;71099;59.528;17.886;2023-07-28T07:10:59;2.28;;;1.20;;
70832;SDS011;71099;59.528;17.886;2023-07-28T07:13:25;0.75;;;0.75;;
70832;SDS011;71099;59.528;17.886;2023-07-28T07:15:50;0.90;;;0.70;;
70832;SDS011;71099;59.528;17.886;2023-07-28T07:18:16;0.73;;;0.70;;
70832;SDS011;71099;59.528;17.886;2023-07-28T07:20:41;0.60;;;0.60;;
70832;SDS011;71099;59.528;17.886;2023-07-28T07:23:07;2.50;;;0.82;;
70832;SDS011;71099;59.528;17.886;2023-07-28T07:25:33;2.50;;;0.85;;
70832;SDS011;71099;59.528;17.886;2023-07-28T07:27:59;1.23;;;0.60;;
70832;SDS011;71099;59.528;17.886;2023-07-28T07:30:24;2.60;;;1.08;;
70832;SDS011;71099;59.528;17.886;2023-07-28T07:32:50;3.88;;;0.50;;
70832;SDS011;71099;59.528;17.886;2023-07-28T07:35:15;2.53;;;0.93;;
70832;SDS011;71099;59.528;17.886;2023-07-28T07:37:41;2.28;;;0.75;;
70832;SDS011;71099;59.528;17.886;2023-07-28T07:40:06;1.60;;;0.82;;
70832;SDS011;71099;59.528;17.886;2023-07-28T07:42:48;15.07;;;2.75;;
70832;SDS011;71099;59.528;17.886;2023-07-28T07:45:14;2.25;;;0.90;;
70832;SDS011;71099;59.528;17.886;2023-07-28T07:47:40;3.55;;;0.85;;
70832;SDS011;71099;59.528;17.886;2023-07-28T07:50:07;2.22;;;0.60;;
70832;SDS011;71099;59.528;17.886;2023-07-28T07:52:34;3.72;;;0.93;;
70832;SDS011;71099;59.528;17.886;2023-07-28T07:55:02;1.92;;;0.85;;
70832;SDS011;71099;59.528;17.886;2023-07-28T07:57:28;2.92;;;0.77;;
70832;SDS011;71099;59.528;17.886;2023-07-28T07:59:54;3.65;;;1.17;;
70832;SDS011;71099;59.528;17.886;2023-07-28T08:02:20;1.98;;;0.77;;
70832;SDS011;71099;59.528;17.886;2023-07-28T08:04:46;7.78;;;0.80;;
70832;SDS011;71099;59.528;17.886;2023-07-28T08:07:11;4.90;;;1.00;;
70832;SDS011;71099;59.528;17.886;2023-07-28T08:09:37;4.47;;;0.70;;
70832;SDS011;71099;59.528;17.886;2023-07-28T08:12:02;1.40;;;0.60;;
70832;SDS011;71099;59.528;17.886;2023-07-28T08:14:28;1.27;;;0.75;;
70832;SDS011;71099;59.528;17.886;2023-07-28T08:16:53;1.35;;;0.60;;
70832;SDS011;71099;59.528;17.886;2023-07-28T08:19:19;2.22;;;0.63;;
70832;SDS011;71099;59.528;17.886;2023-07-28T08:21:45;0.68;;;0.47;;
70832;SDS011;71099;59.528;17.886;2023-07-28T08:24:10;2.75;;;0.68;;
70832;SDS011;71099;59.528;17.886;2023-07-28T08:26:36;2.85;;;0.70;;
70832;SDS011;71099;59.528;17.886;2023-07-28T08:29:02;4.07;;;0.73;;
70832;SDS011;71099;59.528;17.886;2023-07-28T08:31:27;0.73;;;0.50;;
70832;SDS011;71099;59.528;17.886;2023-07-28T08:33:53;2.67;;;0.60;;
70832;SDS011;71099;59.528;17.886;2023-07-28T08:36:18;4.43;;;0.90;;
70832;SDS011;71099;59.528;17.886;2023-07-28T08:38:44;1.13;;;0.55;;
70832;SDS011;71099;59.528;17.886;2023-07-28T08:41:10;0.80;;;0.70;;
70832;SDS011;71099;59.528;17.886;2023-07-28T08:43:35;1.92;;;1.08;;
70832;SDS011;71099;59.528;17.886;2023-07-28T08:46:01;0.85;;;0.68;;
70832;SDS011;71099;59.528;17.886;2023-07-28T08:48:27;1.27;;;0.47;;
70832;SDS011;71099;59.528;17.886;2023-07-28T08:50:52;1.40;;;0.95;;
70832;SDS011;71099;59.528;17.886;2023-07-28T08:53:18;2.25;;;0.70;;
70832;SDS011;71099;59.528;17.886;2023-07-28T08:55:44;2.83;;;0.57;;
70832;SDS011;71099;59.528;17.886;2023-07-28T08:58:19;2.03;;;1.45;;
70832;SDS011;71099;59.528;17.886;2023-07-28T09:00:49;2.92;;;1.00;;
70832;SDS011;71099;59.528;17.886;2023-07-28T09:03:16;1.40;;;0.90;;
70832;SDS011;71099;59.528;17.886;2023-07-28T09:05:46;1.48;;;1.20;;
70832;SDS011;71099;59.528;17.886;2023-07-28T09:08:12;0.95;;;0.82;;
70832;SDS011;71099;59.528;17.886;2023-07-28T09:10:45;1.17;;;0.70;;
70832;SDS011;71099;59.528;17.886;2023-07-28T09:13:14;2.90;;;1.15;;
70832;SDS011;71099;59.528;17.886;2023-07-28T09:15:41;3.78;;;1.50;;
70832;SDS011;71099;59.528;17.886;2023-07-28T09:18:10;1.95;;;1.10;;
70832;SDS011;71099;59.528;17.886;2023-07-28T09:20:37;2.10;;;1.00;;
70832;SDS011;71099;59.528;17.886;2023-07-28T09:23:04;3.60;;;1.38;;
70832;SDS011;71099;59.528;17.886;2023-07-28T09:25:31;1.98;;;1.30;;
70832;SDS011;71099;59.528;17.886;2023-07-28T09:27:57;5.28;;;1.63;;
70832;SDS011;71099;59.528;17.886;2023-07-28T09:30:23;1.63;;;1.48;;
70832;SDS011;71099;59.528;17.886;2023-07-28T09:32:51;2.33;;;1.27;;
70832;SDS011;71099;59.528;17.886;2023-07-28T09:35:18;32.53;;;2.97;;
70832;SDS011;71099;59.528;17.886;2023-07-28T09:37:45;1.88;;;1.08;;
70832;SDS011;71099;59.528;17.886;2023-07-28T09:40:19;1.15;;;1.05;;
70832;SDS011;71099;59.528;17.886;2023-07-28T09:42:46;3.40;;;0.90;;
70832;SDS011;71099;59.528;17.886;2023-07-28T09:45:17;2.97;;;1.23;;
70832;SDS011;71099;59.528;17.886;2023-07-28T09:47:46;1.90;;;1.38;;
70832;SDS011;71099;59.528;17.886;2023-07-28T09:50:17;1.67;;;1.50;;
70832;SDS011;71099;59.528;17.886;2023-07-28T09:52:45;2.15;;;1.02;;
70832;SDS011;71099;59.528;17.886;2023-07-28T09:55:12;1.85;;;1.38;;
70832;SDS011;71099;59.528;17.886;2023-07-28T09:57:48;2.63;;;1.55;;
70832;SDS011;71099;59.528;17.886;2023-07-28T10:00:16;2.40;;;1.30;;
70832;SDS011;71099;59.528;17.886;2023-07-28T10:02:43;2.50;;;1.33;;
70832;SDS011;71099;59.528;17.886;2023-07-28T10:05:09;2.70;;;1.80;;
70832;SDS011;71099;59.528;17.886;2023-07-28T10:07:37;2.05;;;1.40;;
70832;SDS011;71099;59.528;17.886;2023-07-28T10:10:04;1.67;;;1.45;;
70832;SDS011;71099;59.528;17.886;2023-07-28T10:12:54;5.85;;;2.05;;
70832;SDS011;71099;59.528;17.886;2023-07-28T10:15:20;2.45;;;1.58;;
70832;SDS011;71099;59.528;17.886;2023-07-28T10:17:54;4.28;;;1.77;;
70832;SDS011;71099;59.528;17.886;2023-07-28T10:20:29;1.38;;;1.10;;
70832;SDS011;71099;59.528;17.886;2023-07-28T10:25:39;4.45;;;1.90;;
70832;SDS011;71099;59.528;17.886;2023-07-28T10:28:06;2.85;;;1.20;;
70832;SDS011;71099;59.528;17.886;2023-07-28T10:30:36;1.92;;;0.82;;
70832;SDS011;71099;59.528;17.886;2023-07-28T10:33:03;0.93;;;0.93;;
70832;SDS011;71099;59.528;17.886;2023-07-28T10:35:29;3.42;;;1.00;;
70832;SDS011;71099;59.528;17.886;2023-07-28T10:37:57;0.90;;;0.90;;
70832;SDS011;71099;59.528;17.886;2023-07-28T10:42:51;1.08;;;0.90;;
70832;SDS011;71099;59.528;17.886;2023-07-28T10:45:17;1.70;;;1.17;;
70832;SDS011;71099;59.528;17.886;2023-07-28T10:47:44;2.88;;;1.13;;
70832;SDS011;71099;59.528;17.886;2023-07-28T10:50:10;2.90;;;0.80;;
70832;SDS011;71099;59.528;17.886;2023-07-28T10:52:42;1.10;;;0.70;;
70832;SDS011;71099;59.528;17.886;2023-07-28T10:55:18;1.67;;;1.05;;
70832;SDS011;71099;59.528;17.886;2023-07-28T10:57:46;1.73;;;0.75;;
70832;SDS011;71099;59.528;17.886;2023-07-28T11:00:13;1.05;;;0.85;;
70832;SDS011;71099;59.528;17.886;2023-07-28T11:02:44;1.38;;;1.02;;
70832;SDS011;71099;59.528;17.886;2023-07-28T11:05:11;1.50;;;0.80;;
70832;SDS011;71099;59.528;17.886;2023-07-28T11:07:41;1.95;;;0.90;;
70832;SDS011;71099;59.528;17.886;2023-07-28T11:10:09;2.40;;;1.20;;
70832;SDS011;71099;59.528;17.886;2023-07-28T11:12:42;2.33;;;0.73;;
70832;SDS011;71099;59.528;17.886;2023-07-28T11:15:08;1.00;;;0.70;;
70832;SDS011;71099;59.528;17.886;2023-07-28T11:17:36;1.58;;;0.85;;
70832;SDS011;71099;59.528;17.886;2023-07-28T11:20:04;1.40;;;1.10;;
70832;SDS011;71099;59.528;17.886;2023-07-28T11:22:39;0.75;;;0.73;;
70832;SDS011;71099;59.528;17.886;2023-07-28T11:25:08;0.90;;;0.80;;
70832;SDS011;71099;59.528;17.886;2023-07-28T11:27:35;5.03;;;0.82;;
70832;SDS011;71099;59.528;17.886;2023-07-28T11:30:01;1.08;;;0.80;;
70832;SDS011;71099;59.528;17.886;2023-07-28T11:32:28;2.13;;;0.80;;
70832;SDS011;71099;59.528;17.886;2023-07-28T11:35:01;0.50;;;0.50;;
70832;SDS011;71099;59.528;17.886;2023-07-28T11:37:28;1.35;;;0.70;;
70832;SDS011;71099;59.528;17.886;2023-07-28T11:39:55;0.60;;;0.55;;
70832;SDS011;71099;59.528;17.886;2023-07-28T11:42:22;0.73;;;0.45;;
70832;SDS011;71099;59.528;17.886;2023-07-28T11:44:47;0.60;;;0.60;;
70832;SDS011;71099;59.528;17.886;2023-07-28T11:47:22;2.72;;;0.75;;
70832;SDS011;71099;59.528;17.886;2023-07-28T11:49:48;1.38;;;0.70;;
70832;SDS011;71099;59.528;17.886;2023-07-28T11:52:14;0.60;;;0.60;;
70832;SDS011;71099;59.528;17.886;2023-07-28T11:54:40;1.20;;;0.60;;
70832;SDS011;71099;59.528;17.886;2023-07-28T11:57:05;3.20;;;0.75;;
70832;SDS011;71099;59.528;17.886;2023-07-28T11:59:34;0.75;;;0.70;;
70832;SDS011;71099;59.528;17.886;2023-07-28T12:02:01;0.43;;;0.43;;
70832;SDS011;71099;59.528;17.886;2023-07-28T12:04:30;1.95;;;0.70;;
70832;SDS011;71099;59.528;17.886;2023-07-28T12:12:11;1.23;;;0.80;;
70832;SDS011;71099;59.528;17.886;2023-07-28T12:14:40;0.93;;;0.73;;
70832;SDS011;71099;59.528;17.886;2023-07-28T12:17:12;1.88;;;0.90;;
70832;SDS011;71099;59.528;17.886;2023-07-28T12:19:42;0.98;;;0.80;;
70832;SDS011;71099;59.528;17.886;2023-07-28T12:22:20;1.10;;;0.70;;
70832;SDS011;71099;59.528;17.886;2023-07-28T12:24:45;2.05;;;0.52;;
70832;SDS011;71099;59.528;17.886;2023-07-28T12:27:10;1.02;;;0.80;;
70832;SDS011;71099;59.528;17.886;2023-07-28T12:29:38;0.88;;;0.85;;
70832;SDS011;71099;59.528;17.886;2023-07-28T12:32:03;0.93;;;0.80;;
70832;SDS011;71099;59.528;17.886;2023-07-28T12:34:29;0.75;;;0.60;;
70832;SDS011;71099;59.528;17.886;2023-07-28T12:36:55;0.60;;;0.60;;
70832;SDS011;71099;59.528;17.886;2023-07-28T12:39:20;1.13;;;0.52;;
70832;SDS011;71099;59.528;17.886;2023-07-28T12:41:46;1.58;;;1.15;;
70832;SDS011;71099;59.528;17.886;2023-07-28T12:44:11;2.55;;;1.08;;
70832;SDS011;71099;59.528;17.886;2023-07-28T12:46:37;0.80;;;0.80;;
70832;SDS011;71099;59.528;17.886;2023-07-28T12:49:02;1.10;;;1.00;;
70832;SDS011;71099;59.528;17.886;2023-07-28T12:51:29;0.85;;;0.77;;
70832;SDS011;71099;59.528;17.886;2023-07-28T12:53:55;1.65;;;1.08;;
70832;SDS011;71099;59.528;17.886;2023-07-28T12:56:20;4.53;;;0.90;;
70832;SDS011;71099;59.528;17.886;2023-07-28T12:58:46;1.75;;;0.90;;
70832;SDS011;71099;59.528;17.886;2023-07-28T13:01:11;1.08;;;0.98;;
70832;SDS011;71099;59.528;17.886;2023-07-28T13:03:37;1.65;;;0.80;;
70832;SDS011;71099;59.528;17.886;2023-07-28T13:06:03;0.95;;;0.63;;
70832;SDS011;71099;59.528;17.886;2023-07-28T13:08:29;1.65;;;0.60;;
70832;SDS011;71099;59.528;17.886;2023-07-28T13:10:54;0.73;;;0.73;;
70832;SDS011;71099;59.528;17.886;2023-07-28T13:13:20;1.50;;;0.82;;
70832;SDS011;71099;59.528;17.886;2023-07-28T13:15:45;0.73;;;0.73;;
70832;SDS011;71099;59.528;17.886;2023-07-28T13:18:11;1.08;;;0.57;;
70832;SDS011;71099;59.528;17.886;2023-07-28T13:20:36;3.30;;;0.82;;
70832;SDS011;71099;59.528;17.886;2023-07-28T13:23:02;3.90;;;0.80;;
70832;SDS011;71099;59.528;17.886;2023-07-28T13:25:27;1.55;;;0.90;;
70832;SDS011;71099;59.528;17.886;2023-07-28T13:27:53;1.33;;;0.63;;
70832;SDS011;71099;59.528;17.886;2023-07-28T13:30:18;3.47;;;0.60;;
70832;SDS011;71099;59.528;17.886;2023-07-28T13:32:43;0.47;;;0.45;;
70832;SDS011;71099;59.528;17.886;2023-07-28T13:35:09;1.10;;;0.77;;
70832;SDS011;71099;59.528;17.886;2023-07-28T13:37:34;0.95;;;0.75;;
70832;SDS011;71099;59.528;17.886;2023-07-28T13:40:00;0.57;;;0.57;;
70832;SDS011;71099;59.528;17.886;2023-07-28T13:42:25;2.13;;;1.08;;
70832;SDS011;71099;59.528;17.886;2023-07-28T13:44:51;21.15;;;1.30;;
70832;SDS011;71099;59.528;17.886;2023-07-28T13:47:16;0.68;;;0.50;;
70832;SDS011;71099;59.528;17.886;2023-07-28T13:49:41;1.05;;;0.82;;
70832;SDS011;71099;59.528;17.886;2023-07-28T13:52:07;5.88;;;0.52;;
70832;SDS011;71099;59.528;17.886;2023-07-28T13:54:32;0.40;;;0.40;;
70832;SDS011;71099;59.528;17.886;2023-07-28T13:56:58;0.50;;;0.43;;
70832;SDS011;71099;59.528;17.886;2023-07-28T13:59:23;0.45;;;0.45;;
70832;SDS011;71099;59.528;17.886;2023-07-28T14:01:49;0.50;;;0.43;;
70832;SDS011;71099;59.528;17.886;2023-07-28T14:04:17;1.38;;;0.40;;
70832;SDS011;71099;59.528;17.886;2023-07-28T14:06:43;0.95;;;0.77;;
70832;SDS011;71099;59.528;17.886;2023-07-28T14:09:08;1.17;;;0.55;;
70832;SDS011;71099;59.528;17.886;2023-07-28T14:11:34;1.95;;;0.40;;
70832;SDS011;71099;59.528;17.886;2023-07-28T14:14:00;0.73;;;0.60;;
70832;SDS011;71099;59.528;17.886;2023-07-28T14:16:26;1.25;;;0.82;;
70832;SDS011;71099;59.528;17.886;2023-07-28T14:18:51;0.40;;;0.40;;
70832;SDS011;71099;59.528;17.886;2023-07-28T14:21:17;0.43;;;0.43;;
70832;SDS011;71099;59.528;17.886;2023-07-28T14:23:42;0.30;;;0.30;;
70832;SDS011;71099;59.528;17.886;2023-07-28T14:26:07;0.40;;;0.40;;
70832;SDS011;71099;59.528;17.886;2023-07-28T14:28:33;0.57;;;0.43;;
70832;SDS011;71099;59.528;17.886;2023-07-28T14:30:58;0.82;;;0.40;;
70832;SDS011;71099;59.528;17.886;2023-07-28T14:33:24;0.40;;;0.30;;
70832;SDS011;71099;59.528;17.886;2023-07-28T14:35:49;0.30;;;0.30;;
70832;SDS011;71099;59.528;17.886;2023-07-28T14:38:15;0.73;;;0.30;;
70832;SDS011;71099;59.528;17.886;2023-07-28T14:40:41;0.30;;;0.30;;
70832;SDS011;71099;59.528;17.886;2023-07-28T14:43:09;2.10;;;0.32;;